createdAt,value
2022-08-03T00:01:24.121Z,65.72
2022-08-03T00:04:34.158Z,65.26
2022-08-03T00:07:41.289Z,65.05
2022-08-03T00:10:47.824Z,64.95
2022-08-03T00:13:54.174Z,64.77
2022-08-03T00:17:00.787Z,64.91
2022-08-03T00:20:07.867Z,65.42
2022-08-03T00:23:13.916Z,65.63
2022-08-03T00:26:18.306Z,65.26
2022-08-03T00:29:24.427Z,64.92
2022-08-03T00:32:30.503Z,64.53
2022-08-03T00:35:51.056Z,64.40
2022-08-03T00:38:57.586Z,64.15
2022-08-03T00:42:06.982Z,64.13
2022-08-03T00:45:13.622Z,64.04
2022-08-03T00:48:33.433Z,64.06
2022-08-03T00:51:39.966Z,64.97
2022-08-03T00:54:44.643Z,64.74
2022-08-03T00:57:51.348Z,64.61
2022-08-03T01:00:57.624Z,64.23
2022-08-03T01:04:03.934Z,64.11
2022-08-03T01:07:18.322Z,64.00
2022-08-03T01:10:37.090Z,63.84
2022-08-03T01:14:03.589Z,63.89
2022-08-03T01:17:21.862Z,63.87
2022-08-03T01:20:34.016Z,63.73
2022-08-03T01:23:56.732Z,63.73
2022-08-03T01:27:14.191Z,64.28
2022-08-03T01:30:20.486Z,63.94
2022-08-03T01:33:35.759Z,63.92
2022-08-03T01:36:50.230Z,64.05
2022-08-03T01:39:57.783Z,64.31
2022-08-03T01:43:07.849Z,64.21
2022-08-03T01:46:16.071Z,64.50
2022-08-03T01:49:22.385Z,64.52
2022-08-03T01:52:30.340Z,64.70
2022-08-03T01:55:39.262Z,64.86
2022-08-03T01:58:47.650Z,64.89
2022-08-03T02:02:28.813Z,64.67
2022-08-03T02:05:22.227Z,64.97
2022-08-03T02:08:30.310Z,64.57
2022-08-03T02:11:39.002Z,64.53
2022-08-03T02:14:47.018Z,64.82
2022-08-03T02:17:54.689Z,64.60
2022-08-03T02:21:02.443Z,64.21
2022-08-03T02:24:17.134Z,64.20
2022-08-03T02:27:30.811Z,64.04
2022-08-03T02:30:39.735Z,64.08
2022-08-03T02:33:50.745Z,64.13
2022-08-03T02:37:00.413Z,64.13
2022-08-03T02:40:10.822Z,64.36
2022-08-03T02:43:22.956Z,64.37
2022-08-03T02:46:48.413Z,63.98
2022-08-03T02:49:56.085Z,64.13
2022-08-03T02:53:03.112Z,64.11
2022-08-03T02:56:11.003Z,64.32
2022-08-03T02:59:19.527Z,64.36
2022-08-03T03:02:26.491Z,64.72
2022-08-03T03:05:52.729Z,65.15
2022-08-03T03:09:00.754Z,65.00
2022-08-03T03:12:09.048Z,65.28
2022-08-03T03:15:15.403Z,65.17
2022-08-03T03:18:23.211Z,64.77
2022-08-03T03:21:32.187Z,64.85
2022-08-03T03:24:39.542Z,64.87
2022-08-03T03:27:50.790Z,64.78
2022-08-03T03:30:57.268Z,64.63
2022-08-03T03:34:04.032Z,64.81
2022-08-03T03:37:10.279Z,64.82
2022-08-03T03:40:17.014Z,65.07
2022-08-03T03:43:24.474Z,64.97
2022-08-03T03:46:31.326Z,64.95
2022-08-03T03:49:37.602Z,65.52
2022-08-03T03:52:43.771Z,65.89
2022-08-03T03:55:59.540Z,66.46
2022-08-03T03:59:08.966Z,67.04
2022-08-03T04:02:15.377Z,67.40
2022-08-03T04:05:42.878Z,67.41
2022-08-03T04:09:14.732Z,67.50
2022-08-03T04:12:24.305Z,67.50
2022-08-03T04:15:32.784Z,67.69
2022-08-03T04:18:42.826Z,67.72
2022-08-03T04:21:53.167Z,67.94
2022-08-03T04:25:08.519Z,68.08
2022-08-03T04:28:30.708Z,68.18
2022-08-03T04:31:39.825Z,68.53
2022-08-03T04:34:46.606Z,68.69
2022-08-03T04:37:56.609Z,68.88
2022-08-03T04:41:03.428Z,68.93
2022-08-03T04:44:10.586Z,68.87
2022-08-03T04:47:17.265Z,69.16
2022-08-03T04:50:25.002Z,69.11
2022-08-03T04:53:31.761Z,68.00
2022-08-03T04:56:40.738Z,68.02
2022-08-03T04:59:49.410Z,68.13
2022-08-03T05:02:55.938Z,68.53
2022-08-03T05:06:11.077Z,68.55
2022-08-03T05:09:16.245Z,68.56
2022-08-03T05:12:42.695Z,68.00
2022-08-03T05:15:49.393Z,67.69
2022-08-03T05:18:55.558Z,67.20
2022-08-03T05:22:02.056Z,66.94
2022-08-03T05:25:09.174Z,66.71
2022-08-03T05:28:23.282Z,66.19
2022-08-03T05:31:29.422Z,65.81
2022-08-03T05:34:35.604Z,65.60
2022-08-03T05:37:42.438Z,65.10
2022-08-03T05:41:22.580Z,63.98
2022-08-03T05:44:27.363Z,63.51
2022-08-03T05:47:33.506Z,63.50
2022-08-03T05:50:42.770Z,63.52
2022-08-03T05:53:49.351Z,63.40
2022-08-03T05:56:55.578Z,63.52
2022-08-03T06:00:01.852Z,63.43
2022-08-03T06:03:08.108Z,63.34
2022-08-03T06:06:14.679Z,63.28
2022-08-03T06:09:20.790Z,62.92
2022-08-03T06:12:29.112Z,62.53
2022-08-03T06:15:35.599Z,61.99
2022-08-03T06:18:41.936Z,61.04
2022-08-03T06:21:47.923Z,60.79
2022-08-03T06:24:54.754Z,60.59
2022-08-03T06:40:41.258Z,60.12
2022-08-03T06:44:02.913Z,60.33
2022-08-03T06:47:10.647Z,59.50
2022-08-03T06:50:19.045Z,59.58
2022-08-03T06:53:26.859Z,59.39
2022-08-03T06:56:33.042Z,59.32
2022-08-03T07:00:07.774Z,59.22
2022-08-03T07:03:05.684Z,58.68
2022-08-03T07:06:12.002Z,58.69
2022-08-03T07:09:18.125Z,58.71
2022-08-03T07:12:24.315Z,59.12
2022-08-03T07:15:55.111Z,58.43
2022-08-03T07:18:57.216Z,58.22
2022-08-03T07:22:04.294Z,57.78
2022-08-03T07:25:12.019Z,57.89
2022-08-03T07:28:18.224Z,57.20
2022-08-03T07:31:24.455Z,57.05
2022-08-03T07:34:30.762Z,56.84
2022-08-03T07:37:37.072Z,56.40
2022-08-03T07:40:46.305Z,56.16
2022-08-03T07:43:52.739Z,55.73
2022-08-03T07:46:58.919Z,54.33
2022-08-03T07:50:11.510Z,54.46
2022-08-03T07:53:17.877Z,53.92
2022-08-03T07:56:25.017Z,53.26
2022-08-03T07:59:31.103Z,53.77
2022-08-03T08:02:57.248Z,52.69
2022-08-03T08:06:03.410Z,53.80
2022-08-03T08:09:09.817Z,52.57
2022-08-03T08:12:16.490Z,52.30
2022-08-03T08:15:23.005Z,52.28
2022-08-03T08:18:29.817Z,51.62
2022-08-03T08:21:53.673Z,52.60
2022-08-03T08:25:02.329Z,53.07
2022-08-03T08:28:30.807Z,52.21
2022-08-03T08:31:34.833Z,50.63
2022-08-03T08:34:41.089Z,51.63
2022-08-03T08:37:51.237Z,50.80
2022-08-03T08:40:59.586Z,49.06
2022-08-03T08:44:08.297Z,49.01
2022-08-03T08:47:15.577Z,49.22
2022-08-03T08:50:27.953Z,49.56
2022-08-03T08:53:37.419Z,49.83
2022-08-03T08:56:45.045Z,49.57
2022-08-03T08:59:54.528Z,50.07
2022-08-03T09:03:03.973Z,48.98
2022-08-03T09:06:10.319Z,48.90
2022-08-03T09:10:08.134Z,47.92
2022-08-03T09:12:46.511Z,48.66
2022-08-03T09:16:11.448Z,48.71
2022-08-03T09:19:17.740Z,48.67
2022-08-03T09:22:23.933Z,47.54
2022-08-03T09:25:35.251Z,47.56
2022-08-03T09:29:00.518Z,47.20
2022-08-03T09:32:08.528Z,47.86
2022-08-03T09:35:16.058Z,46.88
2022-08-03T09:38:24.340Z,47.84
2022-08-03T09:41:30.494Z,47.69
2022-08-03T09:44:39.989Z,46.95
2022-08-03T09:47:46.175Z,46.94
2022-08-03T09:50:58.677Z,46.39
2022-08-03T09:54:29.390Z,46.82
2022-08-03T09:57:35.643Z,47.80
2022-08-03T10:00:56.954Z,46.99
2022-08-03T10:04:05.196Z,46.33
2022-08-03T10:07:12.239Z,46.35
2022-08-03T10:10:30.226Z,46.29
2022-08-03T10:13:39.386Z,45.81
2022-08-03T10:16:46.284Z,46.73
2022-08-03T10:19:52.687Z,47.14
2022-08-03T10:22:59.990Z,47.01
2022-08-03T10:26:09.039Z,44.93
2022-08-03T10:29:20.266Z,45.97
2022-08-03T10:32:31.798Z,44.39
2022-08-03T10:35:41.305Z,44.52
2022-08-03T10:38:53.415Z,45.39
2022-08-03T10:42:02.875Z,44.82
2022-08-03T10:45:16.480Z,44.36
2022-08-03T10:48:23.711Z,43.40
2022-08-03T10:51:32.335Z,45.03
2022-08-03T10:55:07.507Z,45.62
2022-08-03T10:58:25.202Z,45.53
2022-08-03T11:02:00.850Z,45.16
2022-08-03T11:05:30.252Z,45.40
2022-08-03T11:08:36.993Z,45.75
2022-08-03T11:11:44.453Z,43.91
2022-08-03T11:14:51.834Z,45.12
2022-08-03T11:18:11.717Z,45.83
2022-08-03T11:21:18.071Z,45.10
2022-08-03T11:25:00.695Z,43.83
2022-08-03T11:28:33.770Z,44.08
2022-08-03T11:31:59.311Z,44.95
2022-08-03T11:35:13.371Z,44.22
2022-08-03T11:38:24.766Z,45.48
2022-08-03T11:41:44.852Z,44.05
2022-08-03T11:44:52.450Z,42.50
2022-08-03T11:47:59.491Z,43.13
2022-08-03T11:51:07.236Z,42.88
2022-08-03T11:54:13.611Z,43.61
2022-08-03T11:59:16.469Z,44.14
2022-08-03T12:01:07.888Z,43.33
2022-08-03T12:04:13.782Z,40.97
2022-08-03T12:07:24.978Z,40.19
2022-08-03T12:10:51.711Z,39.93
2022-08-03T12:14:50.041Z,40.50
2022-08-03T12:17:24.305Z,42.30
2022-08-03T12:20:35.398Z,41.91
2022-08-03T12:23:41.882Z,43.24
2022-08-03T12:26:59.303Z,43.29
2022-08-03T12:30:07.180Z,43.04
2022-08-03T12:33:29.906Z,42.39
2022-08-03T12:36:38.301Z,43.13
2022-08-03T12:40:02.743Z,42.91
2022-08-03T12:43:17.455Z,43.21
2022-08-03T12:46:24.178Z,43.61
2022-08-03T12:49:30.721Z,43.15
2022-08-03T12:52:46.161Z,42.86
2022-08-03T12:56:06.065Z,43.37
2022-08-03T12:59:40.483Z,43.09
2022-08-03T13:02:56.357Z,42.04
2022-08-03T13:06:16.194Z,43.62
2022-08-03T13:09:22.615Z,41.76
2022-08-03T13:12:30.978Z,40.93
2022-08-03T13:15:47.651Z,40.33
2022-08-03T13:18:56.363Z,42.33
2022-08-03T13:22:04.704Z,42.42
2022-08-03T13:25:11.350Z,42.04
2022-08-03T13:28:17.810Z,43.05
2022-08-03T13:31:23.998Z,42.85
2022-08-03T13:34:32.515Z,43.41
2022-08-03T13:37:39.569Z,41.47
2022-08-03T13:40:46.101Z,41.04
2022-08-03T13:44:25.121Z,41.18
2022-08-03T13:47:23.212Z,41.27
2022-08-03T13:50:30.134Z,42.34
2022-08-03T14:07:30.699Z,39.44
2022-08-03T14:10:38.587Z,40.28
2022-08-03T14:13:44.786Z,40.98
2022-08-03T14:16:50.927Z,40.73
2022-08-03T14:20:02.430Z,40.21
2022-08-03T14:23:20.808Z,41.16
2022-08-03T14:26:27.993Z,40.46
2022-08-03T14:29:34.270Z,40.05
2022-08-03T14:32:40.611Z,40.69
2022-08-03T14:35:46.915Z,41.23
2022-08-03T14:38:53.116Z,40.67
2022-08-03T14:41:59.263Z,40.20
2022-08-03T14:45:09.566Z,40.01
2022-08-03T14:50:29.095Z,39.81
2022-08-03T14:51:54.144Z,40.66
2022-08-03T14:55:01.410Z,41.20
2022-08-03T14:58:19.598Z,41.13
2022-08-03T15:02:02.138Z,41.56
2022-08-03T15:04:53.716Z,41.62
2022-08-03T15:07:59.934Z,41.84
2022-08-03T15:11:06.379Z,42.75
2022-08-03T15:14:13.471Z,43.31
2022-08-03T15:17:21.257Z,44.33
2022-08-03T15:20:42.673Z,44.51
2022-08-03T15:23:50.419Z,43.68
2022-08-03T15:26:56.582Z,43.82
2022-08-03T15:30:10.129Z,44.46
2022-08-03T15:33:16.715Z,45.18
2022-08-03T15:36:22.991Z,44.94
2022-08-03T15:39:29.521Z,45.09
2022-08-03T15:42:36.308Z,45.48
2022-08-03T15:45:43.076Z,45.55
2022-08-03T15:48:49.670Z,45.80
2022-08-03T15:51:56.486Z,46.14
2022-08-03T15:55:02.652Z,46.22
2022-08-03T15:59:10.684Z,46.70
2022-08-03T16:01:35.014Z,46.96
2022-08-03T16:04:41.334Z,47.31
2022-08-03T16:08:02.880Z,47.72
2022-08-03T16:11:10.312Z,47.79
2022-08-03T16:14:32.444Z,48.42
2022-08-03T16:17:42.224Z,48.58
2022-08-03T16:20:48.734Z,49.48
2022-08-03T16:23:54.914Z,49.25
2022-08-03T16:27:02.443Z,49.41
2022-08-03T16:30:10.339Z,49.92
2022-08-03T16:33:18.018Z,49.70
2022-08-03T16:36:24.286Z,49.73
2022-08-03T16:39:30.471Z,49.77
2022-08-03T16:42:38.826Z,51.14
2022-08-03T16:45:45.087Z,52.00
2022-08-03T16:48:51.154Z,51.05
2022-08-03T16:51:57.291Z,50.92
2022-08-03T16:55:05.806Z,51.88
2022-08-03T16:58:15.344Z,52.43
2022-08-03T17:01:25.008Z,51.77
2022-08-03T17:04:41.834Z,52.70
2022-08-03T17:07:53.859Z,52.92
2022-08-03T17:11:00.303Z,52.56
2022-08-03T17:14:09.605Z,53.09
2022-08-03T17:17:21.766Z,52.56
2022-08-03T17:20:29.935Z,52.56
2022-08-03T17:23:46.316Z,54.73
2022-08-03T17:26:54.676Z,56.39
2022-08-03T17:30:07.955Z,57.98
2022-08-03T17:33:20.332Z,58.19
2022-08-03T17:36:41.877Z,58.25
2022-08-03T17:39:59.494Z,59.08
2022-08-03T17:44:14.048Z,59.12
2022-08-03T17:46:32.388Z,59.77
2022-08-03T17:49:40.058Z,60.21
2022-08-03T17:52:50.343Z,58.96
2022-08-03T17:56:42.431Z,59.73
2022-08-03T17:59:53.001Z,60.75
2022-08-03T18:03:18.494Z,61.59
2022-08-03T18:06:30.421Z,61.28
2022-08-03T18:10:04.807Z,61.73
2022-08-03T18:13:12.038Z,62.14
2022-08-03T18:16:26.099Z,63.32
2022-08-03T18:20:03.482Z,63.93
2022-08-03T18:23:04.690Z,62.82
2022-08-03T18:26:12.686Z,61.14
2022-08-03T18:29:20.204Z,61.62
2022-08-03T18:32:29.465Z,61.97
2022-08-03T18:35:53.388Z,62.22
2022-08-03T18:39:02.592Z,63.81
2022-08-03T18:42:09.384Z,64.26
2022-08-03T18:45:57.190Z,63.59
2022-08-03T18:49:08.059Z,62.60
2022-08-03T18:52:27.595Z,61.78
2022-08-03T18:55:36.666Z,61.44
2022-08-03T19:02:30.444Z,60.68
2022-08-03T19:05:56.243Z,61.37
2022-08-03T19:09:16.968Z,63.59
2022-08-03T19:12:31.070Z,63.68
2022-08-03T19:15:51.279Z,62.79
2022-08-03T19:19:00.634Z,62.14
2022-08-03T19:22:10.519Z,61.95
2022-08-03T19:25:17.813Z,61.61
2022-08-03T19:28:29.985Z,61.29
2022-08-03T19:31:40.642Z,61.25
2022-08-03T19:35:13.210Z,61.30
2022-08-03T19:38:28.594Z,61.11
2022-08-03T19:41:42.104Z,60.11
2022-08-03T19:44:56.623Z,60.81
2022-08-03T19:48:09.952Z,61.69
2022-08-03T19:51:16.586Z,63.70
2022-08-03T19:54:29.699Z,64.08
2022-08-03T19:57:42.249Z,63.37
2022-08-03T20:00:49.773Z,62.87
2022-08-03T20:03:55.877Z,62.35
2022-08-03T20:07:03.014Z,62.22
2022-08-03T20:10:10.235Z,61.94
2022-08-03T20:13:19.519Z,61.77
2022-08-03T20:16:26.145Z,61.89
2022-08-03T20:19:32.456Z,61.72
2022-08-03T20:22:43.204Z,61.71
2022-08-03T20:25:58.611Z,61.79
2022-08-03T20:29:10.225Z,61.72
2022-08-03T20:32:17.461Z,61.65
2022-08-03T20:35:23.804Z,61.71
2022-08-03T20:38:30.622Z,61.88
2022-08-03T20:41:37.326Z,61.76
2022-08-03T20:44:43.622Z,61.64
2022-08-03T20:48:05.773Z,61.71
2022-08-03T20:51:19.357Z,61.77
2022-08-03T20:54:29.325Z,61.61
2022-08-03T20:57:37.638Z,61.74
2022-08-03T21:00:47.942Z,61.77
2022-08-03T21:03:57.504Z,62.09
2022-08-03T21:07:09.804Z,62.22
2022-08-03T21:10:28.413Z,62.07
2022-08-03T21:13:08.888Z,60.26
2022-08-03T21:13:40.543Z,62.20
2022-08-03T21:16:51.072Z,62.36
2022-08-03T21:19:58.551Z,62.80
2022-08-03T21:23:04.789Z,62.87
2022-08-03T21:26:12.271Z,63.39
2022-08-03T21:29:18.913Z,62.85
2022-08-03T21:32:32.407Z,62.31
2022-08-03T21:35:39.444Z,62.05
2022-08-03T21:38:56.877Z,61.95
2022-08-03T21:42:03.659Z,62.04
2022-08-03T21:45:17.170Z,62.36
2022-08-03T21:48:25.662Z,62.20
2022-08-03T21:51:34.305Z,62.18
2022-08-03T21:54:42.548Z,62.21
2022-08-03T21:57:54.846Z,62.24
2022-08-03T22:01:04.402Z,62.14
2022-08-03T22:04:11.988Z,62.02
2022-08-03T22:07:38.280Z,62.37
2022-08-03T22:10:46.947Z,62.75
2022-08-03T22:13:53.323Z,63.00
2022-08-03T22:16:59.722Z,62.81
2022-08-03T22:20:08.802Z,63.03
2022-08-03T22:23:21.173Z,63.00
2022-08-03T22:26:32.283Z,62.80
2022-08-03T22:29:43.504Z,62.62
2022-08-03T22:32:50.784Z,62.49
2022-08-03T22:36:01.556Z,62.25
2022-08-03T22:39:08.035Z,62.18
2022-08-03T22:42:15.143Z,62.30
2022-08-03T22:46:06.981Z,62.30
2022-08-03T22:48:49.690Z,62.12
2022-08-03T22:51:57.327Z,62.17
2022-08-03T22:55:06.577Z,62.20
2022-08-03T22:58:15.583Z,62.38
2022-08-03T23:01:24.725Z,62.33
2022-08-03T23:04:33.094Z,62.27
2022-08-03T23:07:40.870Z,62.44
2022-08-03T23:10:49.987Z,63.08
2022-08-03T23:13:57.870Z,62.85
2022-08-03T23:17:06.199Z,63.08
2022-08-03T23:20:14.230Z,62.82
2022-08-03T23:23:21.754Z,63.08
2022-08-03T23:26:31.634Z,62.94
2022-08-03T23:29:39.419Z,62.98
2022-08-03T23:32:47.017Z,63.10
2022-08-03T23:36:28.619Z,62.97
2022-08-03T23:39:35.081Z,63.03
2022-08-03T23:42:42.496Z,62.95
2022-08-03T23:45:50.663Z,62.82
2022-08-03T23:48:58.119Z,62.87
2022-08-03T23:52:09.926Z,62.51
2022-08-03T23:55:23.482Z,62.57
2022-08-03T23:58:43.994Z,62.67
